Terminal Aerodrome Forecast
Issued by NWS Charleston, SC

Home | Current Version | Previous Version | Text Only | Print | Product List | Glossary On
Versions: 1 2 3 4 5 6 7 8 9 10 11 12 13 14 15 16 17 18 19 20 21 22
000
FTUS42 KCHS 301738
TAFCHS
TAF
KCHS 301738Z 3018/3118 10008KT 6SM -SHRA SCT015 OVC035
      TEMPO 3018/3021 3SM SHRA SCT009 BKN020
     FM310000 12008KT P6SM VCSH SCT015 BKN050
     FM310800 13009KT 6SM SHRA SCT012 BKN025 OVC035=

USA.gov is the U.S. government's official web portal to all federal, state and local government web resources and services.